createdAt,value
2023-08-26T00:01:21.077Z,3.80
2023-08-26T00:04:06.530Z,4.18
2023-08-26T00:06:51.913Z,3.42
2023-08-26T00:09:37.049Z,3.83
2023-08-26T00:12:22.677Z,4.07
2023-08-26T00:15:08.142Z,3.90
2023-08-26T00:17:53.068Z,3.80
2023-08-26T00:20:39.649Z,3.78
2023-08-26T00:23:24.620Z,3.50
2023-08-26T00:26:12.966Z,3.25
2023-08-26T00:28:58.283Z,3.75
2023-08-26T00:31:44.034Z,3.28
2023-08-26T00:34:29.343Z,3.80
2023-08-26T00:37:15.469Z,3.58
2023-08-26T00:40:00.873Z,3.53
2023-08-26T00:42:46.642Z,3.63
2023-08-26T00:45:32.497Z,3.70
2023-08-26T00:48:19.493Z,3.50
2023-08-26T00:53:51.272Z,3.50
2023-08-26T00:56:36.726Z,3.55
2023-08-26T00:59:22.166Z,3.50
2023-08-26T01:02:07.842Z,2.90
2023-08-26T01:04:53.844Z,3.20
2023-08-26T01:07:39.623Z,3.15
2023-08-26T01:10:32.920Z,3.10
2023-08-26T01:13:25.345Z,2.85
2023-08-26T01:16:12.640Z,3.10
2023-08-26T01:18:58.088Z,3.10
2023-08-26T01:21:47.831Z,3.10
2023-08-26T01:24:33.587Z,3.30
2023-08-26T01:27:18.890Z,3.30
2023-08-26T01:30:06.426Z,3.17
2023-08-26T01:33:17.260Z,3.10
2023-08-26T01:36:05.841Z,3.88
2023-08-26T01:38:53.024Z,3.22
2023-08-26T01:41:41.200Z,3.05
2023-08-26T01:44:27.440Z,3.08
2023-08-26T01:47:12.873Z,3.65
2023-08-26T01:49:58.438Z,3.65
2023-08-26T01:52:44.058Z,3.40
2023-08-26T01:55:29.923Z,3.65
2023-08-26T01:58:16.034Z,3.45
2023-08-26T02:01:06.092Z,3.38
2023-08-26T02:03:51.705Z,3.40
2023-08-26T02:06:39.509Z,3.10
2023-08-26T02:09:25.144Z,3.05
2023-08-26T02:12:10.634Z,3.65
2023-08-26T02:14:56.535Z,3.47
2023-08-26T02:17:42.059Z,3.70
2023-08-26T02:20:27.930Z,3.28
2023-08-26T02:23:14.054Z,3.42
2023-08-26T02:25:59.306Z,3.40
2023-08-26T02:28:45.186Z,3.30
2023-08-26T02:31:30.911Z,3.03
2023-08-26T02:34:16.822Z,3.42
2023-08-26T02:37:02.006Z,2.85
2023-08-26T02:39:47.351Z,3.22
2023-08-26T02:42:34.744Z,3.10
2023-08-26T02:45:20.066Z,3.65
2023-08-26T02:48:05.668Z,2.92
2023-08-26T02:50:58.426Z,3.05
2023-08-26T02:53:44.301Z,3.15
2023-08-26T02:56:29.418Z,4.15
2023-08-26T02:59:15.112Z,3.95
2023-08-26T03:02:03.711Z,4.30
2023-08-26T03:04:49.489Z,4.43
2023-08-26T03:07:34.915Z,3.50
2023-08-26T03:10:20.835Z,3.83
2023-08-26T03:13:09.625Z,3.25
2023-08-26T03:15:55.041Z,3.95
2023-08-26T03:18:40.825Z,4.32
2023-08-26T03:21:26.102Z,4.80
2023-08-26T03:24:21.249Z,4.65
2023-08-26T03:27:06.661Z,5.70
2023-08-26T03:29:52.386Z,4.88
2023-08-26T03:32:37.368Z,4.53
2023-08-26T03:35:23.012Z,5.18
2023-08-26T03:38:08.616Z,3.90
2023-08-26T03:40:53.758Z,4.10
2023-08-26T03:43:39.018Z,4.18
2023-08-26T03:46:25.090Z,6.03
2023-08-26T03:49:11.748Z,5.47
2023-08-26T03:51:58.311Z,4.18
2023-08-26T03:54:43.354Z,5.85
2023-08-26T03:57:28.550Z,6.72
2023-08-26T04:00:16.698Z,6.28
2023-08-26T04:03:01.905Z,6.03
2023-08-26T04:05:47.282Z,4.78
2023-08-26T04:08:33.983Z,6.28
2023-08-26T04:16:50.385Z,6.50
2023-08-26T04:19:36.015Z,6.47
2023-08-26T04:22:21.635Z,6.03
2023-08-26T04:25:08.109Z,7.40
2023-08-26T04:27:53.934Z,6.90
2023-08-26T04:30:39.378Z,7.68
2023-08-26T04:33:24.806Z,7.70
2023-08-26T04:36:09.989Z,5.43
2023-08-26T04:38:55.578Z,5.68
2023-08-26T04:41:41.159Z,8.10
2023-08-26T04:44:26.840Z,5.65
2023-08-26T04:47:11.920Z,7.45
2023-08-26T04:49:57.678Z,9.00
2023-08-26T04:52:43.956Z,7.97
2023-08-26T04:55:30.147Z,7.28
2023-08-26T04:58:16.404Z,6.25
2023-08-26T05:01:02.027Z,8.02
2023-08-26T05:03:47.432Z,5.80
2023-08-26T05:06:33.260Z,9.05
2023-08-26T05:09:18.763Z,9.13
2023-08-26T05:12:04.687Z,9.23
2023-08-26T05:14:50.543Z,9.88
2023-08-26T05:17:35.864Z,10.10
2023-08-26T05:20:21.605Z,10.40
2023-08-26T05:23:06.695Z,9.27
2023-08-26T05:25:52.440Z,9.57
2023-08-26T05:28:37.759Z,11.15
2023-08-26T05:31:23.435Z,9.77
2023-08-26T05:34:08.453Z,7.38
2023-08-26T05:36:53.560Z,9.65
2023-08-26T05:39:39.057Z,9.00
2023-08-26T05:42:23.925Z,6.97
2023-08-26T05:45:09.931Z,9.48
2023-08-26T05:47:56.699Z,8.73
2023-08-26T05:50:42.367Z,10.75
2023-08-26T05:53:29.581Z,7.95
2023-08-26T05:56:15.357Z,8.38
2023-08-26T05:59:00.846Z,8.95
2023-08-26T06:01:46.741Z,8.10
2023-08-26T06:04:31.809Z,10.50
2023-08-26T06:07:18.697Z,11.32
2023-08-26T06:10:04.184Z,10.63
2023-08-26T06:12:49.722Z,11.30
2023-08-26T06:15:35.031Z,12.40
2023-08-26T06:18:20.239Z,12.38
2023-08-26T06:21:05.597Z,12.02
2023-08-26T06:23:51.065Z,12.77
2023-08-26T06:26:36.512Z,11.80
2023-08-26T06:29:26.931Z,11.88
2023-08-26T06:32:12.548Z,12.80
2023-08-26T06:34:58.457Z,13.57
2023-08-26T06:37:44.135Z,12.85
2023-08-26T06:40:32.511Z,13.00
2023-08-26T06:43:17.996Z,15.00
2023-08-26T06:46:04.298Z,12.15
2023-08-26T06:48:49.685Z,9.52
2023-08-26T06:51:35.037Z,16.30
2023-08-26T06:54:20.674Z,15.77
2023-08-26T06:57:05.663Z,15.82
2023-08-26T06:59:51.260Z,15.07
2023-08-26T07:02:36.484Z,16.95
2023-08-26T07:05:21.721Z,14.73
2023-08-26T07:08:07.348Z,16.02
2023-08-26T07:10:52.722Z,16.85
2023-08-26T07:13:37.956Z,13.32
2023-08-26T07:16:23.916Z,14.05
2023-08-26T07:19:10.304Z,11.32
2023-08-26T07:21:55.498Z,13.73
2023-08-26T07:24:41.134Z,12.45
2023-08-26T07:27:26.515Z,14.02
2023-08-26T07:30:12.167Z,12.52
2023-08-26T07:32:57.665Z,11.88
2023-08-26T07:35:43.143Z,10.88
2023-08-26T07:38:28.577Z,10.43
2023-08-26T07:41:14.566Z,11.27
2023-08-26T07:43:59.990Z,11.02
2023-08-26T07:49:35.021Z,9.95
2023-08-26T07:52:20.534Z,11.35
2023-08-26T07:55:06.367Z,11.27
2023-08-26T07:57:52.346Z,10.88
2023-08-26T08:00:37.773Z,9.82
2023-08-26T08:03:23.371Z,9.00
2023-08-26T08:06:08.845Z,9.80
2023-08-26T08:08:54.352Z,10.07
2023-08-26T08:11:39.993Z,8.23
2023-08-26T08:14:25.209Z,8.95
2023-08-26T08:17:10.991Z,9.05
2023-08-26T08:19:56.045Z,9.02
2023-08-26T08:22:44.887Z,3.38
2023-08-26T08:25:30.503Z,3.33
2023-08-26T08:28:15.440Z,2.55
2023-08-26T08:31:01.256Z,2.70
2023-08-26T08:33:46.480Z,3.03
2023-08-26T08:36:32.348Z,3.25
2023-08-26T08:39:17.527Z,2.20
2023-08-26T08:42:03.750Z,2.65
2023-08-26T08:44:50.067Z,2.10
2023-08-26T08:47:36.382Z,1.63
2023-08-26T08:50:22.658Z,2.40
2023-08-26T08:53:09.324Z,1.77
2023-08-26T08:55:55.260Z,2.10
2023-08-26T08:58:41.769Z,1.65
2023-08-26T09:01:27.350Z,1.70
2023-08-26T09:04:12.539Z,1.40
2023-08-26T09:06:58.150Z,1.70
2023-08-26T09:09:52.351Z,1.58
2023-08-26T09:12:46.125Z,1.42
2023-08-26T09:15:31.394Z,1.50
2023-08-26T09:18:19.965Z,1.80
2023-08-26T09:21:10.902Z,1.60
2023-08-26T09:23:56.472Z,1.42
2023-08-26T09:26:43.150Z,1.60
2023-08-26T09:29:28.558Z,1.55
2023-08-26T09:32:14.163Z,2.00
2023-08-26T09:35:14.979Z,1.55
2023-08-26T09:38:01.315Z,1.70
2023-08-26T09:40:47.198Z,1.77
2023-08-26T09:43:32.769Z,1.40
2023-08-26T09:46:22.775Z,1.52
2023-08-26T09:49:08.754Z,1.70
2023-08-26T09:51:54.945Z,1.40
2023-08-26T09:54:40.693Z,1.40
2023-08-26T09:57:26.016Z,1.50
2023-08-26T10:00:12.050Z,1.90
2023-08-26T10:03:01.627Z,1.42
2023-08-26T10:05:48.963Z,1.70
2023-08-26T10:08:36.299Z,1.67
2023-08-26T10:11:27.381Z,1.65
2023-08-26T10:14:15.493Z,1.60
2023-08-26T10:17:09.226Z,1.42
2023-08-26T10:19:57.211Z,2.38
2023-08-26T10:22:42.687Z,1.30
2023-08-26T10:25:31.338Z,1.50
2023-08-26T10:28:17.370Z,1.60
2023-08-26T10:31:11.248Z,1.50
2023-08-26T10:34:13.782Z,1.50
2023-08-26T10:36:59.206Z,1.33
2023-08-26T10:39:44.058Z,1.48
2023-08-26T10:42:29.461Z,1.50
2023-08-26T10:45:16.251Z,1.67
2023-08-26T10:48:01.761Z,1.52
2023-08-26T10:51:03.962Z,1.52
2023-08-26T10:53:49.904Z,1.42
2023-08-26T10:56:35.681Z,1.50
2023-08-26T10:59:35.088Z,1.88
2023-08-26T11:02:25.034Z,1.70
2023-08-26T11:05:10.123Z,1.90
2023-08-26T11:07:57.746Z,1.88
2023-08-26T11:10:43.185Z,3.05
2023-08-26T11:13:28.369Z,2.40
2023-08-26T11:16:16.545Z,1.88
2023-08-26T11:19:03.825Z,1.70
2023-08-26T11:21:49.433Z,1.83
2023-08-26T11:24:34.630Z,1.75
2023-08-26T11:27:20.470Z,1.60
2023-08-26T11:30:10.534Z,2.08
2023-08-26T11:33:00.766Z,1.90
2023-08-26T11:35:58.639Z,2.35
2023-08-26T11:38:44.383Z,1.67
2023-08-26T11:41:29.915Z,1.83
2023-08-26T11:44:16.505Z,1.40
2023-08-26T11:49:47.458Z,1.60
2023-08-26T11:52:48.604Z,1.40
2023-08-26T11:55:48.800Z,1.70
2023-08-26T11:58:37.029Z,1.70
2023-08-26T12:01:24.623Z,1.75
2023-08-26T12:04:14.373Z,1.70
2023-08-26T12:06:59.717Z,1.40
2023-08-26T12:09:45.791Z,1.70
2023-08-26T12:12:31.308Z,1.60
2023-08-26T12:15:18.388Z,1.40
2023-08-26T12:18:04.171Z,2.28
2023-08-26T12:20:51.673Z,1.40
2023-08-26T12:23:38.361Z,1.85
2023-08-26T12:26:24.892Z,1.50
2023-08-26T12:29:11.926Z,1.75
2023-08-26T12:31:57.560Z,1.50
2023-08-26T12:34:42.774Z,1.50
2023-08-26T12:37:43.617Z,1.40
2023-08-26T12:40:40.300Z,1.67
2023-08-26T12:43:25.596Z,1.85
2023-08-26T12:46:11.255Z,1.45
2023-08-26T12:48:57.213Z,1.83
2023-08-26T12:51:52.492Z,1.52
2023-08-26T12:54:38.018Z,1.63
2023-08-26T12:57:23.505Z,2.05
2023-08-26T13:00:10.353Z,1.88
2023-08-26T13:02:55.863Z,1.63
2023-08-26T13:05:41.123Z,1.48
2023-08-26T13:08:26.611Z,1.60
2023-08-26T13:11:12.036Z,1.65
2023-08-26T13:13:57.602Z,1.33
2023-08-26T13:16:43.252Z,1.65
2023-08-26T13:19:29.848Z,1.60
2023-08-26T13:22:15.413Z,1.42
2023-08-26T13:25:01.144Z,1.80
2023-08-26T13:27:46.470Z,1.95
2023-08-26T13:30:32.897Z,1.60
2023-08-26T13:36:04.621Z,2.20
2023-08-26T13:38:49.943Z,1.88
2023-08-26T13:41:35.077Z,1.70
2023-08-26T13:44:20.049Z,1.70
2023-08-26T13:47:05.291Z,1.70
2023-08-26T13:49:50.610Z,2.22
2023-08-26T13:52:35.994Z,2.10
2023-08-26T13:55:21.289Z,2.17
2023-08-26T13:58:06.407Z,1.65
2023-08-26T14:00:51.826Z,1.70
2023-08-26T14:03:36.688Z,1.75
2023-08-26T14:06:22.623Z,2.03
2023-08-26T14:09:08.852Z,1.90
2023-08-26T14:11:54.401Z,1.92
2023-08-26T14:14:39.648Z,1.60
2023-08-26T14:17:25.331Z,2.00
2023-08-26T14:20:11.239Z,1.55
2023-08-26T14:22:56.738Z,1.80
2023-08-26T14:25:46.324Z,2.00
2023-08-26T14:28:31.505Z,1.70
2023-08-26T14:31:16.974Z,1.58
2023-08-26T14:34:02.947Z,1.80
2023-08-26T14:36:48.563Z,1.60
2023-08-26T14:39:33.541Z,2.20
2023-08-26T14:42:19.034Z,1.65
2023-08-26T14:45:04.656Z,1.60
2023-08-26T14:47:50.334Z,2.00
2023-08-26T14:50:36.247Z,3.88
2023-08-26T14:53:21.493Z,14.63
2023-08-26T14:56:07.141Z,11.63
2023-08-26T14:58:52.150Z,12.50
2023-08-26T15:01:37.508Z,1.65
2023-08-26T15:04:22.752Z,7.07
2023-08-26T15:07:15.352Z,10.95
2023-08-26T15:12:46.823Z,12.73
2023-08-26T15:15:32.090Z,2.83
2023-08-26T15:18:18.800Z,4.78
2023-08-26T15:21:04.539Z,1.90
2023-08-26T15:23:49.459Z,1.70
2023-08-26T15:26:34.925Z,2.05
2023-08-26T15:29:20.172Z,2.00
2023-08-26T15:32:05.609Z,1.70
2023-08-26T15:34:50.853Z,1.85
2023-08-26T15:37:40.037Z,1.98
2023-08-26T15:40:25.383Z,1.70
2023-08-26T15:43:10.570Z,3.15
2023-08-26T15:45:55.917Z,2.03
2023-08-26T15:48:40.894Z,2.33
2023-08-26T15:51:26.274Z,2.40
2023-08-26T15:54:11.402Z,2.78
2023-08-26T15:56:56.886Z,5.03
2023-08-26T15:59:43.041Z,2.20
2023-08-26T16:02:28.475Z,5.07
2023-08-26T16:05:14.976Z,12.73
2023-08-26T16:08:00.762Z,2.40
2023-08-26T16:10:46.349Z,8.82
2023-08-26T16:13:31.455Z,10.27
2023-08-26T16:16:17.201Z,2.90
2023-08-26T16:19:02.760Z,2.10
2023-08-26T16:21:47.736Z,2.15
2023-08-26T16:24:32.809Z,2.10
2023-08-26T16:27:18.024Z,2.20
2023-08-26T16:30:06.002Z,2.30
2023-08-26T16:32:50.917Z,2.95
2023-08-26T16:35:36.976Z,1.83
2023-08-26T16:38:22.532Z,6.63
2023-08-26T16:41:08.587Z,2.38
2023-08-26T16:43:55.132Z,2.00
2023-08-26T16:46:42.108Z,2.50
2023-08-26T16:49:27.556Z,2.47
2023-08-26T16:52:12.593Z,2.15
2023-08-26T16:54:57.978Z,2.42
2023-08-26T16:57:43.376Z,1.85
2023-08-26T17:00:29.259Z,2.10
2023-08-26T17:03:14.754Z,2.42
2023-08-26T17:06:00.043Z,2.40
2023-08-26T17:08:45.216Z,2.55
2023-08-26T17:11:30.621Z,1.80
2023-08-26T17:14:15.800Z,1.95
2023-08-26T17:17:02.433Z,2.15
2023-08-26T17:19:47.670Z,1.90
2023-08-26T17:22:33.066Z,2.00
2023-08-26T17:25:18.427Z,2.00
2023-08-26T17:28:03.873Z,2.30
2023-08-26T17:30:49.587Z,1.80
2023-08-26T17:33:35.605Z,2.20
2023-08-26T17:36:22.585Z,2.10
2023-08-26T17:39:07.982Z,1.83
2023-08-26T17:41:54.533Z,2.25
2023-08-26T17:44:39.857Z,2.42
2023-08-26T17:47:25.327Z,1.95
2023-08-26T17:50:10.700Z,4.10
2023-08-26T17:52:56.428Z,2.55
2023-08-26T17:55:41.460Z,2.20
2023-08-26T17:58:27.047Z,2.38
2023-08-26T18:01:12.483Z,2.28
2023-08-26T18:03:58.004Z,2.65
2023-08-26T18:06:45.761Z,2.30
2023-08-26T18:09:31.226Z,2.35
2023-08-26T18:12:16.419Z,2.50
2023-08-26T18:15:01.742Z,2.13
2023-08-26T18:17:47.483Z,2.20
2023-08-26T18:20:33.272Z,2.28
2023-08-26T18:23:18.665Z,2.50
2023-08-26T18:26:03.948Z,2.20
2023-08-26T18:28:49.623Z,2.70
2023-08-26T18:31:34.609Z,2.50
2023-08-26T18:34:19.707Z,2.00
2023-08-26T18:37:05.138Z,2.45
2023-08-26T18:39:50.788Z,2.08
2023-08-26T18:42:36.209Z,2.10
2023-08-26T18:45:21.855Z,2.20
2023-08-26T18:48:07.356Z,2.40
2023-08-26T18:50:58.285Z,2.03
2023-08-26T18:53:44.148Z,2.00
2023-08-26T18:56:29.301Z,2.58
2023-08-26T18:59:14.803Z,2.45
2023-08-26T19:02:00.302Z,2.28
2023-08-26T19:04:45.907Z,2.30
2023-08-26T19:07:31.205Z,2.40
2023-08-26T19:10:16.645Z,2.53
2023-08-26T19:13:04.177Z,2.72
2023-08-26T19:15:49.442Z,2.10
2023-08-26T19:18:34.832Z,2.08
2023-08-26T19:21:20.162Z,2.13
2023-08-26T19:24:06.975Z,2.45
2023-08-26T19:26:52.444Z,2.20
2023-08-26T19:29:37.999Z,2.13
2023-08-26T19:32:23.611Z,2.10
2023-08-26T19:35:09.425Z,2.10
2023-08-26T19:37:55.052Z,2.50
2023-08-26T19:40:40.891Z,2.60
2023-08-26T19:43:26.180Z,2.30
2023-08-26T19:46:11.702Z,2.45
2023-08-26T19:48:57.206Z,2.35
2023-08-26T19:51:42.819Z,2.80
2023-08-26T19:54:28.293Z,2.45
2023-08-26T19:57:23.328Z,2.83
2023-08-26T20:00:10.018Z,2.50
2023-08-26T20:05:41.332Z,2.50
2023-08-26T20:08:27.904Z,2.33
2023-08-26T20:11:13.384Z,2.67
2023-08-26T20:13:58.492Z,2.60
2023-08-26T20:16:44.380Z,2.35
2023-08-26T20:19:30.108Z,2.30
2023-08-26T20:22:15.175Z,2.30
2023-08-26T20:25:00.692Z,2.80
2023-08-26T20:27:46.403Z,2.30
2023-08-26T20:30:31.696Z,2.25
2023-08-26T20:33:16.799Z,2.20
2023-08-26T20:36:04.489Z,2.70
2023-08-26T20:38:50.062Z,2.28
2023-08-26T20:41:36.525Z,2.20
2023-08-26T20:44:21.796Z,2.17
2023-08-26T20:47:07.898Z,2.45
2023-08-26T20:50:01.596Z,2.10
2023-08-26T20:52:47.568Z,2.78
2023-08-26T20:55:33.040Z,2.50
2023-08-26T20:58:18.405Z,2.30
2023-08-26T21:01:03.900Z,2.47
2023-08-26T21:03:49.632Z,2.30
2023-08-26T21:06:35.121Z,2.28
2023-08-26T21:09:23.174Z,2.60
2023-08-26T21:12:08.710Z,2.80
2023-08-26T21:14:54.230Z,2.55
2023-08-26T21:17:39.480Z,2.25
2023-08-26T21:20:24.990Z,2.60
2023-08-26T21:23:11.265Z,2.58
2023-08-26T21:25:57.059Z,2.10
2023-08-26T21:28:42.564Z,2.88
2023-08-26T21:31:27.832Z,2.42
2023-08-26T21:34:16.385Z,2.35
2023-08-26T21:37:01.793Z,2.50
2023-08-26T21:39:47.599Z,2.75
2023-08-26T21:42:33.016Z,2.30
2023-08-26T21:45:18.200Z,2.53
2023-08-26T21:48:04.019Z,2.20
2023-08-26T21:50:49.210Z,2.58
2023-08-26T21:53:35.469Z,2.65
2023-08-26T21:56:20.875Z,2.20
2023-08-26T21:59:06.061Z,2.58
2023-08-26T22:01:51.792Z,2.40
2023-08-26T22:04:37.525Z,2.55
2023-08-26T22:07:25.329Z,2.33
2023-08-26T22:10:12.769Z,2.63
2023-08-26T22:12:58.429Z,3.03
2023-08-26T22:15:45.111Z,2.60
2023-08-26T22:18:30.248Z,2.72
2023-08-26T22:21:16.363Z,2.65
2023-08-26T22:24:01.657Z,2.35
2023-08-26T22:26:46.555Z,2.60
2023-08-26T22:29:31.518Z,2.90
2023-08-26T22:32:16.721Z,2.70
2023-08-26T22:35:01.877Z,2.50
2023-08-26T22:37:47.270Z,2.60
2023-08-26T22:40:32.890Z,3.00
2023-08-26T22:43:18.041Z,2.80
2023-08-26T22:46:03.901Z,3.03
2023-08-26T22:48:49.402Z,2.88
2023-08-26T22:51:34.832Z,2.80
2023-08-26T22:54:19.991Z,2.78
2023-08-26T22:57:05.680Z,3.00
2023-08-26T22:59:51.325Z,3.13
2023-08-26T23:02:37.198Z,3.47
2023-08-26T23:05:22.229Z,3.05
2023-08-26T23:08:08.319Z,2.92
2023-08-26T23:10:53.900Z,2.97
2023-08-26T23:13:38.814Z,3.15
2023-08-26T23:16:24.085Z,3.17
2023-08-26T23:19:09.962Z,2.80
2023-08-26T23:21:57.667Z,3.10
2023-08-26T23:24:42.675Z,3.22
2023-08-26T23:27:29.377Z,2.45
2023-08-26T23:30:14.971Z,2.83
2023-08-26T23:33:00.703Z,2.92
2023-08-26T23:35:46.479Z,2.63
2023-08-26T23:38:32.101Z,3.10
2023-08-26T23:41:17.793Z,3.20
2023-08-26T23:44:03.190Z,3.00
2023-08-26T23:46:49.725Z,3.28
2023-08-26T23:49:34.977Z,2.92
2023-08-26T23:52:20.630Z,2.90
2023-08-26T23:55:06.294Z,2.90
2023-08-26T23:57:51.559Z,3.50
